sensor_id;sensor_type;location;lat;lon;timestamp;pressure;altitude;pressure_sealevel;temperature;humidity
46506;BME280;32220;49.808;9.968;2022-12-07T10:38:17;98833.06;;;4.91;100.00
46506;BME280;32220;49.808;9.968;2022-12-07T10:40:45;98833.69;;;5.39;100.00
46506;BME280;32220;49.808;9.968;2022-12-07T10:43:17;98850.50;;;5.96;98.76
46506;BME280;32220;49.808;9.968;2022-12-07T10:46:09;98856.50;;;6.39;92.97
46506;BME280;32220;49.808;9.968;2022-12-07T10:48:43;98860.19;;;6.72;89.88
46506;BME280;32220;49.808;9.968;2022-12-07T10:51:19;98857.63;;;6.90;86.48
46506;BME280;32220;49.808;9.968;2022-12-07T10:54:02;98856.84;;;7.05;85.01
46506;BME280;32220;49.808;9.968;2022-12-07T10:56:57;98857.75;;;7.22;83.62
46506;BME280;32220;49.808;9.968;2022-12-07T10:59:41;98860.66;;;7.35;82.23
46506;BME280;32220;49.808;9.968;2022-12-07T11:02:23;98844.97;;;7.32;80.46
46506;BME280;32220;49.808;9.968;2022-12-07T11:04:59;98853.19;;;7.43;80.09
46506;BME280;32220;49.808;9.968;2022-12-07T11:07:38;98852.78;;;7.52;79.95
46506;BME280;32220;49.808;9.968;2022-12-07T11:10:17;98855.00;;;7.60;79.28
46506;BME280;32220;49.808;9.968;2022-12-07T11:13:10;98822.75;;;7.38;77.82
46506;BME280;32220;49.808;9.968;2022-12-07T11:15:51;98847.47;;;7.70;77.95
46506;BME280;32220;49.808;9.968;2022-12-07T11:18:26;98827.25;;;7.70;77.15
46506;BME280;32220;49.808;9.968;2022-12-07T11:20:59;98849.56;;;7.98;76.75
46506;BME280;32220;49.808;9.968;2022-12-07T11:23:48;98839.88;;;8.64;75.53
46506;BME280;32220;49.808;9.968;2022-12-07T11:26:25;98844.97;;;8.98;74.50
46506;BME280;32220;49.808;9.968;2022-12-07T11:29:11;98823.75;;;9.46;73.66
46506;BME280;32220;49.808;9.968;2022-12-07T11:31:55;98839.69;;;10.18;71.56
46506;BME280;32220;49.808;9.968;2022-12-07T11:34:34;98820.13;;;10.21;68.26
46506;BME280;32220;49.808;9.968;2022-12-07T11:37:08;98805.38;;;10.31;67.60
46506;BME280;32220;49.808;9.968;2022-12-07T11:39:41;98856.69;;;10.57;66.75
46506;BME280;32220;49.808;9.968;2022-12-07T11:42:15;98858.22;;;10.32;66.24
46506;BME280;32220;49.808;9.968;2022-12-07T11:44:50;98852.69;;;10.07;66.25
46506;BME280;32220;49.808;9.968;2022-12-07T11:47:27;98844.06;;;9.89;66.63
46506;BME280;32220;49.808;9.968;2022-12-07T11:50:05;98826.25;;;9.63;66.50
46506;BME280;32220;49.808;9.968;2022-12-07T11:52:43;98842.38;;;9.58;66.79
46506;BME280;32220;49.808;9.968;2022-12-07T11:55:19;98819.25;;;9.32;67.64
46506;BME280;32220;49.808;9.968;2022-12-07T11:57:54;98834.00;;;9.36;68.07
46506;BME280;32220;49.808;9.968;2022-12-07T12:00:25;98827.97;;;9.34;68.80
46506;BME280;32220;49.808;9.968;2022-12-07T12:02:57;98802.88;;;9.11;67.58
46506;BME280;32220;49.808;9.968;2022-12-07T12:05:27;98812.72;;;9.23;68.05
46506;BME280;32220;49.808;9.968;2022-12-07T12:08:02;98806.75;;;9.20;68.35
46506;BME280;32220;49.808;9.968;2022-12-07T12:10:42;98789.91;;;9.07;68.12
46506;BME280;32220;49.808;9.968;2022-12-07T12:13:31;98811.47;;;9.15;68.16
46506;BME280;32220;49.808;9.968;2022-12-07T12:16:32;98787.56;;;9.02;69.04
46506;BME280;32220;49.808;9.968;2022-12-07T12:19:20;98805.06;;;9.03;68.92
46506;BME280;32220;49.808;9.968;2022-12-07T12:21:55;98782.44;;;8.83;68.45
46506;BME280;32220;49.808;9.968;2022-12-07T12:24:26;98798.44;;;8.96;69.25
46506;BME280;32220;49.808;9.968;2022-12-07T12:26:59;98806.13;;;9.00;68.92
46506;BME280;32220;49.808;9.968;2022-12-07T12:29:32;98785.16;;;8.97;68.30
46506;BME280;32220;49.808;9.968;2022-12-07T12:32:12;98799.13;;;8.99;68.28
46506;BME280;32220;49.808;9.968;2022-12-07T12:34:58;98764.56;;;8.88;68.97
46506;BME280;32220;49.808;9.968;2022-12-07T12:37:51;98790.59;;;9.10;68.27
46506;BME280;32220;49.808;9.968;2022-12-07T12:40:40;98798.13;;;9.32;67.27
46506;BME280;32220;49.808;9.968;2022-12-07T12:43:42;98795.25;;;9.21;67.55
46506;BME280;32220;49.808;9.968;2022-12-07T12:46:44;98787.28;;;9.36;67.07
46506;BME280;32220;49.808;9.968;2022-12-07T12:49:32;98765.56;;;9.02;66.89
46506;BME280;32220;49.808;9.968;2022-12-07T12:52:00;98780.81;;;8.96;67.57
46506;BME280;32220;49.808;9.968;2022-12-07T12:54:31;98778.72;;;8.72;68.47
46506;BME280;32220;49.808;9.968;2022-12-07T12:57:03;98760.66;;;8.48;69.88
46506;BME280;32220;49.808;9.968;2022-12-07T12:59:33;98772.06;;;8.33;70.61
46506;BME280;32220;49.808;9.968;2022-12-07T13:02:20;98766.38;;;8.08;72.59
46506;BME280;32220;49.808;9.968;2022-12-07T13:04:53;98755.97;;;7.89;73.06
46506;BME280;32220;49.808;9.968;2022-12-07T13:07:56;98749.09;;;7.69;74.04
46506;BME280;32220;49.808;9.968;2022-12-07T13:10:43;98746.34;;;7.55;74.88
46506;BME280;32220;49.808;9.968;2022-12-07T13:13:30;98742.56;;;7.43;76.20
46506;BME280;32220;49.808;9.968;2022-12-07T13:16:38;98736.22;;;7.30;75.88
46506;BME280;32220;49.808;9.968;2022-12-07T13:22:43;98726.28;;;6.83;76.66
46506;BME280;32220;49.808;9.968;2022-12-07T13:25:17;98728.47;;;6.75;77.27
46506;BME280;32220;49.808;9.968;2022-12-07T13:27:51;98719.53;;;6.61;77.99
46506;BME280;32220;49.808;9.968;2022-12-07T13:30:22;98726.50;;;6.62;78.44
46506;BME280;32220;49.808;9.968;2022-12-07T13:32:54;98728.34;;;6.60;78.81
46506;BME280;32220;49.808;9.968;2022-12-07T13:35:30;98725.72;;;6.60;79.20
46506;BME280;32220;49.808;9.968;2022-12-07T13:38:02;98729.97;;;6.62;79.17
46506;BME280;32220;49.808;9.968;2022-12-07T13:40:31;98729.06;;;6.63;78.90
46506;BME280;32220;49.808;9.968;2022-12-07T13:43:00;98733.31;;;6.66;78.88
46506;BME280;32220;49.808;9.968;2022-12-07T13:45:29;98733.16;;;6.69;78.96
46506;BME280;32220;49.808;9.968;2022-12-07T13:48:21;98732.72;;;6.78;78.96
46506;BME280;32220;49.808;9.968;2022-12-07T13:50:53;98741.00;;;6.88;78.44
46506;BME280;32220;49.808;9.968;2022-12-07T13:53:23;98726.16;;;6.87;78.29
46506;BME280;32220;49.808;9.968;2022-12-07T13:55:54;98747.22;;;7.04;78.00
46506;BME280;32220;49.808;9.968;2022-12-07T13:58:23;98722.13;;;6.97;78.06
46506;BME280;32220;49.808;9.968;2022-12-07T14:00:50;98737.44;;;7.06;77.92
46506;BME280;32220;49.808;9.968;2022-12-07T14:03:29;98744.28;;;7.10;78.02
46506;BME280;32220;49.808;9.968;2022-12-07T14:06:06;98734.22;;;7.01;78.05
46506;BME280;32220;49.808;9.968;2022-12-07T14:08:37;98736.59;;;7.05;78.19
46506;BME280;32220;49.808;9.968;2022-12-07T14:11:07;98722.25;;;6.94;78.13
46506;BME280;32220;49.808;9.968;2022-12-07T14:13:39;98743.81;;;7.02;78.28
46506;BME280;32220;49.808;9.968;2022-12-07T14:16:22;98738.47;;;7.03;78.17
46506;BME280;32220;49.808;9.968;2022-12-07T14:18:51;98742.13;;;7.01;77.44
46506;BME280;32220;49.808;9.968;2022-12-07T14:21:21;98735.75;;;7.05;77.88
46506;BME280;32220;49.808;9.968;2022-12-07T14:24:18;98737.00;;;7.15;77.99
46506;BME280;32220;49.808;9.968;2022-12-07T14:26:48;98731.75;;;7.15;77.47
46506;BME280;32220;49.808;9.968;2022-12-07T14:29:21;98734.81;;;7.23;77.15
46506;BME280;32220;49.808;9.968;2022-12-07T14:31:49;98733.91;;;7.24;77.34
46506;BME280;32220;49.808;9.968;2022-12-07T14:34:16;98752.34;;;7.24;76.97
46506;BME280;32220;49.808;9.968;2022-12-07T14:36:46;98749.41;;;7.13;77.22
46506;BME280;32220;49.808;9.968;2022-12-07T14:39:14;98732.34;;;7.03;77.92
46506;BME280;32220;49.808;9.968;2022-12-07T14:41:43;98723.03;;;6.96;78.03
46506;BME280;32220;49.808;9.968;2022-12-07T14:44:21;98717.19;;;6.91;78.47
46506;BME280;32220;49.808;9.968;2022-12-07T14:46:50;98717.47;;;6.84;78.49
46506;BME280;32220;49.808;9.968;2022-12-07T14:49:18;98697.75;;;6.57;78.86
46506;BME280;32220;49.808;9.968;2022-12-07T14:51:46;98713.09;;;6.49;79.06
46506;BME280;32220;49.808;9.968;2022-12-07T14:54:17;98721.69;;;6.34;79.20
46506;BME280;32220;49.808;9.968;2022-12-07T14:56:49;98717.31;;;6.16;79.73
46506;BME280;32220;49.808;9.968;2022-12-07T14:59:17;98710.94;;;6.02;80.35
46506;BME280;32220;49.808;9.968;2022-12-07T15:01:45;98697.44;;;5.91;80.40
46506;BME280;32220;49.808;9.968;2022-12-07T15:04:15;98702.13;;;5.83;80.70
46506;BME280;32220;49.808;9.968;2022-12-07T15:06:55;98698.97;;;5.76;80.75
46506;BME280;32220;49.808;9.968;2022-12-07T15:09:23;98660.84;;;5.48;80.62
46506;BME280;32220;49.808;9.968;2022-12-07T15:11:52;98687.91;;;5.50;80.93
46506;BME280;32220;49.808;9.968;2022-12-07T15:14:19;98675.31;;;5.37;81.57
46506;BME280;32220;49.808;9.968;2022-12-07T15:16:47;98697.91;;;5.41;81.98
46506;BME280;32220;49.808;9.968;2022-12-07T15:19:16;98692.78;;;5.38;82.01
46506;BME280;32220;49.808;9.968;2022-12-07T15:21:45;98695.53;;;5.35;82.52
46506;BME280;32220;49.808;9.968;2022-12-07T15:24:13;98703.41;;;5.35;83.19
46506;BME280;32220;49.808;9.968;2022-12-07T15:26:41;98704.16;;;5.39;83.18
46506;BME280;32220;49.808;9.968;2022-12-07T15:29:10;98704.72;;;5.46;83.18
46506;BME280;32220;49.808;9.968;2022-12-07T15:31:38;98683.88;;;5.43;83.43
46506;BME280;32220;49.808;9.968;2022-12-07T15:34:06;98697.22;;;5.57;83.65
46506;BME280;32220;49.808;9.968;2022-12-07T15:36:34;98691.81;;;5.60;83.55
